createdAt,value
2018-06-16T00:02:16.528Z,8.63
2018-06-16T00:04:44.879Z,9.67
2018-06-16T00:07:12.964Z,8.63
2018-06-16T00:09:41.317Z,9.63
2018-06-16T00:12:09.675Z,8.93
2018-06-16T00:14:38.064Z,9.57
2018-06-16T00:17:06.451Z,10.00
2018-06-16T00:19:34.784Z,8.10
2018-06-16T00:22:03.151Z,9.23
2018-06-16T00:24:31.504Z,7.93
2018-06-16T00:26:59.594Z,8.27
2018-06-16T00:29:27.933Z,10.03
2018-06-16T00:31:56.289Z,9.70
2018-06-16T00:34:24.619Z,9.20
2018-06-16T00:36:52.711Z,8.43
2018-06-16T00:39:21.049Z,10.03
2018-06-16T00:41:49.411Z,11.00
2018-06-16T00:44:17.739Z,8.10
2018-06-16T00:46:46.121Z,8.30
2018-06-16T00:49:14.448Z,8.37
2018-06-16T00:51:42.835Z,8.57
2018-06-16T00:54:11.204Z,9.57
2018-06-16T00:56:39.548Z,10.40
2018-06-16T00:59:07.899Z,7.97
2018-06-16T01:01:35.967Z,9.97
2018-06-16T01:04:04.328Z,10.53
2018-06-16T01:06:32.665Z,8.77
2018-06-16T01:09:01.048Z,8.77
2018-06-16T01:11:29.403Z,8.63
2018-06-16T01:13:57.751Z,8.97
2018-06-16T01:16:26.076Z,7.93
2018-06-16T01:18:54.444Z,9.40
2018-06-16T01:21:22.772Z,9.00
2018-06-16T01:23:51.128Z,10.40
2018-06-16T01:26:19.463Z,8.07
2018-06-16T01:28:47.538Z,8.67
2018-06-16T01:31:15.598Z,11.73
2018-06-16T01:33:43.963Z,8.80
2018-06-16T01:36:12.351Z,10.30
2018-06-16T01:38:40.708Z,10.57
2018-06-16T01:41:09.032Z,8.93
2018-06-16T01:43:37.119Z,10.40
2018-06-16T01:46:05.508Z,7.73
2018-06-16T01:48:33.871Z,9.33
2018-06-16T01:51:02.212Z,9.63
2018-06-16T01:53:30.572Z,8.57
2018-06-16T01:55:58.905Z,10.73
2018-06-16T01:58:27.231Z,11.00
2018-06-16T02:00:55.585Z,9.03
2018-06-16T02:03:23.908Z,10.87
2018-06-16T02:05:52.261Z,8.93
2018-06-16T02:08:20.596Z,10.07
2018-06-16T02:10:49.016Z,9.10
2018-06-16T02:13:17.372Z,10.03
2018-06-16T02:15:45.680Z,9.50
2018-06-16T02:18:13.987Z,8.67
2018-06-16T02:20:42.366Z,10.33
2018-06-16T02:23:10.688Z,10.63
2018-06-16T02:25:39.028Z,12.27
2018-06-16T02:28:07.340Z,11.27
2018-06-16T02:30:36.016Z,10.23
2018-06-16T02:33:04.352Z,10.53
2018-06-16T02:35:32.706Z,8.27
2018-06-16T02:38:01.025Z,10.30
2018-06-16T02:40:29.372Z,9.43
2018-06-16T02:42:57.683Z,9.50
2018-06-16T02:45:26.020Z,8.80
2018-06-16T02:47:54.337Z,10.13
2018-06-16T02:50:22.696Z,10.57
2018-06-16T02:52:51.029Z,11.90
2018-06-16T02:55:19.365Z,12.47
2018-06-16T02:57:47.675Z,14.10
2018-06-16T03:00:15.756Z,15.83
2018-06-16T03:02:44.071Z,12.07
2018-06-16T03:05:12.424Z,11.37
2018-06-16T03:07:40.744Z,10.93
2018-06-16T03:10:09.123Z,12.03
2018-06-16T03:12:37.489Z,10.90
2018-06-16T03:15:05.881Z,10.80
2018-06-16T03:17:34.189Z,10.53
2018-06-16T03:20:02.274Z,11.10
2018-06-16T03:22:30.371Z,9.10
2018-06-16T03:24:58.720Z,9.00
2018-06-16T03:27:26.777Z,9.50
2018-06-16T03:29:55.176Z,11.17
2018-06-16T03:32:23.472Z,9.17
2018-06-16T03:34:51.815Z,10.47
2018-06-16T03:37:20.144Z,11.87
2018-06-16T03:39:48.494Z,10.47
2018-06-16T03:42:16.820Z,9.60
2018-06-16T03:44:45.164Z,8.67
2018-06-16T03:47:13.479Z,8.47
2018-06-16T03:49:41.800Z,10.83
2018-06-16T03:52:10.147Z,11.47
2018-06-16T03:54:38.479Z,9.63
2018-06-16T03:57:06.824Z,10.63
2018-06-16T03:59:35.151Z,11.90
2018-06-16T04:02:03.516Z,9.83
2018-06-16T04:04:31.835Z,9.07
2018-06-16T04:07:00.187Z,9.37
2018-06-16T04:09:28.533Z,9.30
2018-06-16T04:11:56.876Z,10.80
2018-06-16T04:14:25.201Z,7.77
2018-06-16T04:16:53.580Z,11.43
2018-06-16T04:19:21.980Z,9.63
2018-06-16T04:21:50.328Z,8.93
2018-06-16T04:24:18.387Z,9.43
2018-06-16T04:26:46.459Z,9.03
2018-06-16T04:29:14.786Z,8.50
2018-06-16T04:31:43.132Z,6.90
2018-06-16T04:34:11.195Z,9.90
2018-06-16T04:36:39.271Z,7.80
2018-06-16T04:39:07.763Z,7.53
2018-06-16T04:41:36.117Z,7.37
2018-06-16T04:44:04.468Z,8.63
2018-06-16T04:46:32.817Z,9.30
2018-06-16T04:49:01.132Z,7.47
2018-06-16T04:51:29.483Z,7.00
2018-06-16T04:53:57.811Z,7.30
2018-06-16T04:56:26.156Z,7.63
2018-06-16T04:58:54.487Z,8.27
2018-06-16T05:01:22.561Z,9.90
2018-06-16T05:03:50.639Z,9.63
2018-06-16T05:06:18.980Z,6.47
2018-06-16T05:08:47.303Z,7.03
2018-06-16T05:11:15.669Z,6.97
2018-06-16T05:13:43.720Z,7.50
2018-06-16T05:16:12.052Z,9.03
2018-06-16T05:18:40.371Z,7.20
2018-06-16T05:21:08.712Z,9.63
2018-06-16T05:23:37.056Z,6.87
2018-06-16T05:26:05.437Z,6.33
2018-06-16T05:28:33.488Z,7.30
2018-06-16T05:31:01.832Z,6.03
2018-06-16T05:33:30.144Z,5.90
2018-06-16T05:35:58.460Z,7.10
2018-06-16T05:38:26.831Z,6.13
2018-06-16T05:40:55.140Z,6.03
2018-06-16T05:43:23.479Z,5.97
2018-06-16T05:45:51.543Z,7.97
2018-06-16T05:48:19.663Z,7.30
2018-06-16T05:50:48.028Z,6.43
2018-06-16T05:53:16.327Z,5.93
2018-06-16T05:55:44.642Z,6.63
2018-06-16T05:58:12.990Z,5.63
2018-06-16T06:00:41.307Z,5.77
2018-06-16T06:03:09.392Z,6.43
2018-06-16T06:05:37.711Z,6.50
2018-06-16T06:08:06.199Z,5.83
2018-06-16T06:10:34.626Z,6.47
2018-06-16T06:13:02.766Z,5.07
2018-06-16T06:15:31.400Z,6.50
2018-06-16T06:17:59.747Z,5.67
2018-06-16T06:20:28.085Z,5.40
2018-06-16T06:22:56.440Z,5.57
2018-06-16T06:25:24.752Z,6.30
2018-06-16T06:27:53.096Z,5.63
2018-06-16T06:30:21.415Z,5.33
2018-06-16T06:32:49.768Z,5.67
2018-06-16T06:35:18.096Z,6.43
2018-06-16T06:37:46.446Z,5.27
2018-06-16T06:40:14.865Z,6.67
2018-06-16T06:42:43.228Z,5.10
2018-06-16T06:45:11.555Z,6.60
2018-06-16T06:47:39.909Z,5.47
2018-06-16T06:50:08.191Z,5.33
2018-06-16T06:52:36.307Z,6.83
2018-06-16T06:55:04.829Z,5.77
2018-06-16T06:57:33.200Z,6.23
2018-06-16T07:00:01.541Z,5.30
2018-06-16T07:02:29.912Z,6.27
2018-06-16T07:04:58.266Z,5.37
2018-06-16T07:07:26.619Z,6.40
2018-06-16T07:09:55.044Z,6.13
2018-06-16T07:12:23.412Z,6.27
2018-06-16T07:14:51.728Z,7.23
2018-06-16T07:17:20.076Z,6.80
2018-06-16T07:19:48.469Z,5.80
2018-06-16T07:22:16.805Z,5.83
2018-06-16T07:24:45.160Z,5.93
2018-06-16T07:27:13.576Z,5.27
2018-06-16T07:29:41.876Z,6.20
2018-06-16T07:32:10.208Z,6.17
2018-06-16T07:34:38.557Z,6.93
2018-06-16T07:37:06.882Z,5.77
2018-06-16T07:39:35.256Z,6.43
2018-06-16T07:42:03.584Z,6.37
2018-06-16T07:44:31.939Z,5.90
2018-06-16T07:47:00.269Z,6.53
2018-06-16T07:49:28.633Z,7.27
2018-06-16T07:51:56.956Z,6.17
2018-06-16T07:54:25.042Z,7.90
2018-06-16T07:56:53.373Z,8.03
2018-06-16T07:59:21.725Z,6.30
2018-06-16T08:01:50.055Z,6.80
2018-06-16T08:04:18.406Z,8.67
2018-06-16T08:06:46.730Z,8.67
2018-06-16T08:09:14.852Z,5.83
2018-06-16T08:11:43.178Z,6.37
2018-06-16T08:14:11.262Z,6.10
2018-06-16T08:16:39.587Z,8.10
2018-06-16T08:19:07.943Z,7.70
2018-06-16T08:21:36.303Z,7.07
2018-06-16T08:24:04.624Z,6.70
2018-06-16T08:26:32.972Z,8.13
2018-06-16T08:29:01.295Z,7.67
2018-06-16T08:31:29.655Z,8.43
2018-06-16T08:33:57.986Z,6.73
2018-06-16T08:36:26.116Z,6.20
2018-06-16T08:38:54.448Z,6.13
2018-06-16T08:41:22.799Z,8.07
2018-06-16T08:43:51.128Z,5.20
2018-06-16T08:46:19.492Z,5.50
2018-06-16T08:48:47.861Z,7.80
2018-06-16T08:51:16.221Z,8.47
2018-06-16T08:53:44.573Z,8.83
2018-06-16T08:56:12.920Z,6.03
2018-06-16T08:58:41.260Z,7.97
2018-06-16T09:01:09.346Z,7.03
2018-06-16T09:03:37.666Z,9.27
2018-06-16T09:06:06.021Z,7.40
2018-06-16T09:08:34.344Z,5.70
2018-06-16T09:11:02.724Z,7.30
2018-06-16T09:13:31.052Z,8.90
2018-06-16T09:15:59.404Z,7.43
2018-06-16T09:18:27.461Z,8.50
2018-06-16T09:20:55.830Z,6.80
2018-06-16T09:23:24.160Z,8.37
2018-06-16T09:25:52.504Z,6.87
2018-06-16T09:28:20.835Z,9.67
2018-06-16T09:30:49.156Z,6.70
2018-06-16T09:33:17.503Z,8.57
2018-06-16T09:35:45.837Z,7.47
2018-06-16T09:38:13.926Z,13.47
2018-06-16T09:40:42.248Z,7.27
2018-06-16T09:43:10.612Z,6.47
2018-06-16T09:45:38.956Z,7.73
2018-06-16T09:48:07.316Z,7.90
2018-06-16T09:50:35.667Z,8.40
2018-06-16T09:53:04.038Z,8.17
2018-06-16T09:55:32.353Z,8.57
2018-06-16T09:58:00.439Z,7.43
2018-06-16T10:00:33.897Z,8.63
2018-06-16T10:03:02.288Z,8.27
2018-06-16T10:05:30.614Z,7.50
2018-06-16T10:07:59.023Z,8.10
2018-06-16T10:10:27.391Z,7.17
2018-06-16T10:12:55.732Z,7.93
2018-06-16T10:15:24.053Z,7.60
2018-06-16T10:17:52.424Z,8.20
2018-06-16T10:20:20.752Z,8.30
2018-06-16T10:22:49.104Z,6.57
2018-06-16T10:25:17.460Z,6.80
2018-06-16T10:27:45.801Z,6.87
2018-06-16T10:30:13.856Z,7.00
2018-06-16T10:32:42.224Z,7.37
2018-06-16T10:35:10.548Z,6.37
2018-06-16T10:37:38.885Z,7.40
2018-06-16T10:40:07.231Z,8.53
2018-06-16T10:42:35.586Z,5.13
2018-06-16T10:45:04.024Z,5.57
2018-06-16T10:47:32.392Z,5.87
2018-06-16T10:50:00.718Z,6.63
2018-06-16T10:52:29.100Z,4.50
2018-06-16T10:54:57.444Z,8.03
2018-06-16T10:57:26.687Z,7.57
2018-06-16T10:59:55.115Z,6.10
2018-06-16T11:02:24.063Z,6.10
2018-06-16T11:04:52.425Z,4.40
2018-06-16T11:07:20.745Z,6.30
2018-06-16T11:09:49.121Z,8.43
2018-06-16T11:12:17.452Z,5.47
2018-06-16T11:14:45.535Z,6.43
2018-06-16T11:17:13.868Z,5.50
2018-06-16T11:19:42.240Z,6.90
2018-06-16T11:22:10.560Z,5.77
2018-06-16T11:24:38.647Z,6.43
2018-06-16T11:27:07.135Z,4.20
2018-06-16T11:29:37.144Z,5.57
2018-06-16T11:32:06.008Z,4.22
2018-06-16T11:34:34.364Z,9.05
2018-06-16T11:37:03.871Z,4.08
2018-06-16T11:39:33.182Z,6.33
2018-06-16T11:42:02.486Z,5.00
2018-06-16T11:44:32.370Z,5.72
2018-06-16T11:47:00.898Z,5.15
2018-06-16T11:49:30.550Z,5.97
2018-06-16T11:51:59.806Z,4.17
2018-06-16T11:54:28.007Z,4.40
2018-06-16T11:56:56.333Z,6.08
2018-06-16T11:59:24.689Z,4.25
2018-06-16T12:01:53.034Z,4.45
2018-06-16T12:04:21.112Z,4.22
2018-06-16T12:06:49.453Z,7.55
2018-06-16T12:09:17.836Z,6.03
2018-06-16T12:11:46.176Z,4.65
2018-06-16T12:14:14.537Z,5.60
2018-06-16T12:16:42.876Z,4.40
2018-06-16T12:19:11.232Z,7.15
2018-06-16T12:21:39.604Z,4.87
2018-06-16T12:24:07.980Z,6.12
2018-06-16T12:26:36.323Z,4.62
2018-06-16T12:29:04.716Z,5.87
2018-06-16T12:31:33.078Z,5.97
2018-06-16T12:34:01.444Z,7.05
2018-06-16T12:36:29.767Z,10.45
2018-06-16T12:38:58.097Z,7.67
2018-06-16T12:41:26.450Z,6.70
2018-06-16T12:43:54.780Z,7.28
2018-06-16T12:46:23.139Z,8.28
2018-06-16T12:48:51.207Z,9.65
2018-06-16T12:51:19.564Z,5.95
2018-06-16T12:53:47.900Z,8.55
2018-06-16T12:56:16.248Z,7.03
2018-06-16T12:58:44.303Z,5.80
2018-06-16T13:01:12.657Z,6.10
2018-06-16T13:03:41.012Z,5.12
2018-06-16T13:06:09.355Z,7.12
2018-06-16T13:08:37.407Z,4.42
2018-06-16T13:11:05.780Z,4.95
2018-06-16T13:13:34.100Z,3.30
2018-06-16T13:16:02.455Z,5.85
2018-06-16T13:18:30.780Z,5.42
2018-06-16T13:20:59.696Z,3.95
2018-06-16T13:23:28.023Z,4.75
2018-06-16T13:25:56.364Z,5.42
2018-06-16T13:28:24.757Z,3.70
2018-06-16T13:30:53.121Z,3.62
2018-06-16T13:33:21.480Z,5.95
2018-06-16T13:35:49.849Z,3.85
2018-06-16T13:38:18.195Z,4.17
2018-06-16T13:40:46.290Z,7.12
2018-06-16T13:43:14.652Z,5.00
2018-06-16T13:45:43.028Z,4.53
2018-06-16T13:48:11.080Z,3.40
2018-06-16T13:50:39.459Z,5.08
2018-06-16T13:53:07.796Z,6.33
2018-06-16T13:55:36.144Z,5.80
2018-06-16T13:58:04.492Z,5.85
2018-06-16T14:00:32.888Z,5.35
2018-06-16T14:03:01.216Z,5.28
2018-06-16T14:05:29.584Z,4.37
2018-06-16T14:07:57.891Z,5.28
2018-06-16T14:10:26.257Z,5.80
2018-06-16T14:12:54.600Z,5.30
2018-06-16T14:15:22.679Z,5.03
2018-06-16T14:17:51.003Z,7.12
2018-06-16T14:20:19.364Z,5.00
2018-06-16T14:22:47.714Z,5.37
2018-06-16T14:25:16.036Z,4.60
2018-06-16T14:27:44.384Z,3.65
2018-06-16T14:30:12.709Z,5.95
2018-06-16T14:32:41.070Z,5.33
2018-06-16T14:35:09.383Z,3.05
2018-06-16T14:37:37.728Z,5.28
2018-06-16T14:40:06.070Z,5.62
2018-06-16T14:42:34.481Z,3.80
2018-06-16T14:45:02.922Z,5.65
2018-06-16T14:47:31.283Z,3.55
2018-06-16T14:49:59.336Z,3.80
2018-06-16T14:52:27.672Z,4.95
2018-06-16T14:54:55.992Z,4.60
2018-06-16T14:57:24.342Z,4.08
2018-06-16T14:59:52.675Z,4.50
2018-06-16T15:02:20.756Z,3.83
2018-06-16T15:04:49.227Z,6.17
2018-06-16T15:07:17.461Z,3.87
2018-06-16T15:09:45.828Z,3.42
2018-06-16T15:12:14.172Z,5.00
2018-06-16T15:14:42.241Z,5.87
2018-06-16T15:17:10.320Z,5.05
2018-06-16T15:19:38.635Z,6.83
2018-06-16T15:22:06.984Z,4.53
2018-06-16T15:24:35.320Z,4.50
2018-06-16T15:27:03.680Z,3.47
2018-06-16T15:29:31.995Z,4.58
2018-06-16T15:32:00.093Z,3.72
2018-06-16T15:34:28.444Z,4.42
2018-06-16T15:36:56.803Z,5.17
2018-06-16T15:39:25.175Z,4.75
2018-06-16T15:41:53.543Z,4.55
2018-06-16T15:44:21.864Z,5.65
2018-06-16T15:46:49.948Z,3.70
2018-06-16T15:49:18.003Z,4.70
2018-06-16T15:51:46.356Z,4.28
2018-06-16T15:54:14.684Z,4.72
2018-06-16T15:56:43.072Z,3.02
2018-06-16T15:59:11.401Z,3.95
2018-06-16T16:01:39.753Z,5.50
2018-06-16T16:04:08.112Z,5.25
2018-06-16T16:06:36.555Z,4.55
2018-06-16T16:09:06.820Z,4.78
2018-06-16T16:11:35.378Z,7.53
2018-06-16T16:14:03.516Z,3.65
2018-06-16T16:16:31.842Z,5.90
2018-06-16T16:19:00.220Z,5.65
2018-06-16T16:21:28.545Z,4.20
2018-06-16T16:23:56.896Z,6.45
2018-06-16T16:26:25.221Z,6.15
2018-06-16T16:28:53.569Z,4.20
2018-06-16T16:31:21.884Z,3.12
2018-06-16T16:33:50.305Z,5.03
2018-06-16T16:36:18.632Z,5.83
2018-06-16T16:38:47.013Z,2.98
2018-06-16T16:41:15.328Z,3.80
2018-06-16T16:43:43.402Z,3.85
2018-06-16T16:46:11.455Z,4.62
2018-06-16T16:48:39.801Z,4.37
2018-06-16T16:51:08.130Z,3.87
2018-06-16T16:53:36.203Z,3.85
2018-06-16T16:56:04.249Z,3.60
2018-06-16T16:58:32.596Z,3.77
2018-06-16T17:01:00.764Z,3.65
2018-06-16T17:03:29.100Z,3.10
2018-06-16T17:05:57.151Z,2.92
2018-06-16T17:08:25.508Z,4.70
2018-06-16T17:10:53.988Z,3.80
2018-06-16T17:13:22.337Z,4.05
2018-06-16T17:15:50.660Z,5.78
2018-06-16T17:18:19.016Z,4.75
2018-06-16T17:20:47.337Z,3.80
2018-06-16T17:23:15.679Z,4.42
2018-06-16T17:25:43.996Z,4.15
2018-06-16T17:28:12.344Z,3.55
2018-06-16T17:30:40.664Z,4.92
2018-06-16T17:33:08.747Z,5.65
2018-06-16T17:35:37.078Z,3.45
2018-06-16T17:38:05.699Z,3.87
2018-06-16T17:40:33.752Z,8.75
2018-06-16T17:43:02.088Z,5.33
2018-06-16T17:45:30.404Z,5.90
2018-06-16T17:47:58.720Z,3.92
2018-06-16T17:50:27.122Z,5.08
2018-06-16T17:52:55.449Z,3.27
2018-06-16T17:55:23.819Z,4.05
2018-06-16T17:57:52.147Z,6.17
2018-06-16T18:00:20.500Z,4.17
2018-06-16T18:02:48.591Z,4.25
2018-06-16T18:05:16.935Z,3.05
2018-06-16T18:07:45.260Z,4.53
2018-06-16T18:10:13.632Z,6.78
2018-06-16T18:12:41.953Z,4.85
2018-06-16T18:15:10.308Z,4.60
2018-06-16T18:17:38.704Z,4.10
2018-06-16T18:20:07.344Z,3.83
2018-06-16T18:22:35.667Z,5.20
2018-06-16T18:25:04.037Z,7.22
2018-06-16T18:27:32.357Z,8.80
2018-06-16T18:30:00.697Z,6.20
2018-06-16T18:32:29.046Z,7.65
2018-06-16T18:34:57.409Z,4.08
2018-06-16T18:37:25.727Z,6.00
2018-06-16T18:39:54.073Z,6.45
2018-06-16T18:42:22.429Z,6.58
2018-06-16T18:44:50.781Z,8.15
2018-06-16T18:47:19.108Z,11.88
2018-06-16T18:49:47.502Z,15.08
2018-06-16T18:52:15.810Z,23.70
2018-06-16T18:54:44.155Z,14.15
2018-06-16T18:57:12.480Z,11.22
2018-06-16T18:59:41.485Z,10.00
2018-06-16T19:02:09.929Z,6.62
2018-06-16T19:04:39.548Z,5.65
2018-06-16T19:07:09.129Z,5.28
2018-06-16T19:09:39.222Z,3.50
2018-06-16T19:12:07.295Z,6.03
2018-06-16T19:14:35.824Z,6.83
2018-06-16T19:17:04.198Z,5.55
2018-06-16T19:19:32.544Z,4.55
2018-06-16T19:22:00.864Z,5.25
2018-06-16T19:24:29.790Z,4.37
2018-06-16T19:26:58.695Z,3.45
2018-06-16T19:29:27.370Z,4.08
2018-06-16T19:31:55.761Z,5.80
2018-06-16T19:34:24.236Z,4.97
2018-06-16T19:36:52.756Z,4.78
2018-06-16T19:39:21.500Z,5.10
2018-06-16T19:41:50.438Z,4.83
2018-06-16T19:44:19.353Z,6.85
2018-06-16T19:46:48.042Z,6.60
2018-06-16T19:49:16.399Z,6.08
2018-06-16T19:51:44.738Z,5.90
2018-06-16T19:54:13.076Z,4.97
2018-06-16T19:56:41.412Z,6.47
2018-06-16T19:59:09.535Z,10.18
2018-06-16T20:01:37.883Z,5.33
2018-06-16T20:04:06.227Z,6.17
2018-06-16T20:06:34.592Z,5.47
2018-06-16T20:09:02.956Z,5.33
2018-06-16T20:11:31.332Z,5.20
2018-06-16T20:14:00.359Z,5.40
2018-06-16T20:16:29.409Z,4.87
2018-06-16T20:18:58.192Z,6.50
2018-06-16T20:21:28.156Z,6.33
2018-06-16T20:23:58.217Z,4.63
2018-06-16T20:26:28.248Z,5.50
2018-06-16T20:28:57.631Z,6.17
2018-06-16T20:31:27.880Z,6.70
2018-06-16T20:33:58.067Z,5.90
2018-06-16T20:36:28.332Z,4.53
2018-06-16T20:38:58.722Z,5.13
2018-06-16T20:41:28.892Z,4.97
2018-06-16T20:43:57.275Z,9.20
2018-06-16T20:46:25.628Z,6.97
2018-06-16T20:48:53.995Z,6.67
2018-06-16T20:51:22.355Z,12.17
2018-06-16T20:53:50.417Z,7.63
2018-06-16T20:56:18.506Z,9.67
2018-06-16T20:58:46.844Z,8.90
2018-06-16T21:01:15.215Z,8.97
2018-06-16T21:03:43.553Z,7.47
2018-06-16T21:06:12.028Z,11.60
2018-06-16T21:08:40.360Z,10.43
2018-06-16T21:11:08.724Z,8.37
2018-06-16T21:13:37.043Z,10.17
2018-06-16T21:16:05.383Z,8.83
2018-06-16T21:18:33.700Z,12.60
2018-06-16T21:21:02.063Z,10.13
2018-06-16T21:23:30.459Z,11.63
2018-06-16T21:25:58.852Z,8.40
2018-06-16T21:28:27.208Z,8.57
2018-06-16T21:30:57.673Z,8.47
2018-06-16T21:33:27.197Z,9.13
2018-06-16T21:35:56.077Z,10.20
2018-06-16T21:38:24.232Z,8.97
2018-06-16T21:40:53.843Z,7.97
2018-06-16T21:43:22.731Z,8.77
2018-06-16T21:45:52.919Z,9.00
2018-06-16T21:48:21.302Z,9.33
2018-06-16T21:50:49.604Z,8.50
2018-06-16T21:53:17.949Z,7.23
2018-06-16T21:55:46.300Z,9.50
2018-06-16T21:58:14.640Z,8.77
2018-06-16T22:00:42.735Z,9.90
2018-06-16T22:03:11.072Z,8.87
2018-06-16T22:05:39.396Z,8.77
2018-06-16T22:08:13.076Z,9.13
2018-06-16T22:10:41.152Z,9.50
2018-06-16T22:13:09.235Z,10.20
2018-06-16T22:15:37.565Z,9.60
2018-06-16T22:18:06.140Z,6.73
2018-06-16T22:20:34.534Z,9.73
2018-06-16T22:23:02.928Z,10.37
2018-06-16T22:25:31.269Z,12.10
2018-06-16T22:27:59.612Z,7.63
2018-06-16T22:30:27.945Z,11.43
2018-06-16T22:32:56.302Z,7.03
2018-06-16T22:35:24.632Z,9.27
2018-06-16T22:37:52.911Z,7.20
2018-06-16T22:40:21.014Z,9.73
2018-06-16T22:42:49.364Z,9.83
2018-06-16T22:45:17.697Z,9.17
2018-06-16T22:47:46.048Z,9.33
2018-06-16T22:50:14.421Z,7.90
2018-06-16T22:52:42.748Z,10.40
2018-06-16T22:55:11.079Z,7.77
2018-06-16T22:57:39.426Z,8.17
2018-06-16T23:00:07.809Z,10.27
2018-06-16T23:02:36.632Z,7.77
2018-06-16T23:05:04.977Z,9.30
2018-06-16T23:07:33.324Z,9.50
2018-06-16T23:10:01.680Z,13.60
2018-06-16T23:12:30.048Z,10.07
2018-06-16T23:14:58.382Z,10.93
2018-06-16T23:17:26.705Z,12.40
2018-06-16T23:19:55.064Z,11.40
2018-06-16T23:22:23.110Z,8.83
2018-06-16T23:24:51.484Z,11.10
2018-06-16T23:27:19.812Z,10.27
2018-06-16T23:29:48.164Z,8.77
2018-06-16T23:32:16.476Z,9.37
2018-06-16T23:34:44.827Z,11.13
2018-06-16T23:37:13.143Z,9.17
2018-06-16T23:39:41.497Z,9.00
2018-06-16T23:42:09.884Z,8.77
2018-06-16T23:44:38.244Z,12.33
2018-06-16T23:47:06.572Z,10.27
2018-06-16T23:49:34.969Z,9.77
2018-06-16T23:52:03.339Z,12.20
2018-06-16T23:54:31.688Z,12.83
2018-06-16T23:57:00.034Z,11.43
2018-06-16T23:59:28.127Z,8.40
